Time;durP1;ratioP1;P1;durP2;ratioP2;P2;SDS_P1;SDS_P2;PMS_P1;PMS_P2;Temp;Humidity;BMP_temperature;BMP_pressure;BME280_temperature;BME280_humidity;BME280_pressure;Samples;Min_cycle;Max_cycle;Signal;HPM_P1;HPM_P2
2022/11/20 00:01:20;;;;;;;1.25;0.60;;;;;;;;;;1913508;74;26413;-60
2022/11/20 00:03:47;;;;;;;0.88;0.50;;;;;;;;;;1905860;73;26207;-61
2022/11/20 00:06:16;;;;;;;0.90;0.78;;;;;;;;;;1899430;73;26229;-60
2022/11/20 00:08:43;;;;;;;0.50;0.50;;;;;;;;;;1911185;74;26160;-60
2022/11/20 00:11:12;;;;;;;0.60;0.60;;;;;;;;;;1905871;73;26705;-59
2022/11/20 00:13:39;;;;;;;0.53;0.53;;;;;;;;;;1904752;73;26257;-59
2022/11/20 00:16:07;;;;;;;0.53;0.53;;;;;;;;;;1910052;73;26714;-59
2022/11/20 00:18:35;;;;;;;0.55;0.47;;;;;;;;;;1895395;73;26214;-59
2022/11/20 00:21:06;;;;;;;0.42;0.42;;;;;;;;;;1907842;73;26714;-60
2022/11/20 00:23:33;;;;;;;0.40;0.40;;;;;;;;;;1905889;73;26773;-60
2022/11/20 00:26:04;;;;;;;0.50;0.50;;;;;;;;;;1912199;73;26192;-59
2022/11/20 00:28:32;;;;;;;0.30;0.30;;;;;;;;;;1901715;74;26234;-59
2022/11/20 00:31:03;;;;;;;0.40;0.40;;;;;;;;;;1907595;74;26289;-62
2022/11/20 00:33:31;;;;;;;0.47;0.47;;;;;;;;;;1898653;73;26279;-60
2022/11/20 00:36:02;;;;;;;0.50;0.40;;;;;;;;;;1907885;73;26234;-60
2022/11/20 00:38:30;;;;;;;0.30;0.30;;;;;;;;;;1905093;73;26252;-61
2022/11/20 00:40:58;;;;;;;0.37;0.37;;;;;;;;;;1908555;73;27434;-60
2022/11/20 00:43:27;;;;;;;0.42;0.42;;;;;;;;;;1899167;73;26313;-61
2022/11/20 00:46:01;;;;;;;0.30;0.30;;;;;;;;;;1905694;74;26297;-61
2022/11/20 00:48:29;;;;;;;0.40;0.40;;;;;;;;;;1910523;73;26220;-61
2022/11/20 00:50:56;;;;;;;0.30;0.30;;;;;;;;;;1904054;73;26254;-61
2022/11/20 00:53:24;;;;;;;0.23;0.23;;;;;;;;;;1900076;74;27237;-61
2022/11/20 00:56:01;;;;;;;0.30;0.30;;;;;;;;;;1893007;73;26303;-61
2022/11/20 00:58:30;;;;;;;0.40;0.40;;;;;;;;;;1909997;73;26215;-61
2022/11/20 01:01:11;;;;;;;0.33;0.33;;;;;;;;;;1901942;73;26233;-61
2022/11/20 01:03:40;;;;;;;0.40;0.40;;;;;;;;;;1897175;73;26690;-60
2022/11/20 01:06:08;;;;;;;0.28;0.28;;;;;;;;;;1905933;73;26644;-61
2022/11/20 01:08:36;;;;;;;0.35;0.35;;;;;;;;;;1904393;73;27162;-60
2022/11/20 01:11:05;;;;;;;0.30;0.30;;;;;;;;;;1911573;73;26218;-60
2022/11/20 01:13:38;;;;;;;0.30;0.30;;;;;;;;;;1902408;73;26198;-61
2022/11/20 01:16:07;;;;;;;0.40;0.40;;;;;;;;;;1906730;74;27387;-61
2022/11/20 01:18:35;;;;;;;0.35;0.35;;;;;;;;;;1917553;73;26706;-61
2022/11/20 01:21:07;;;;;;;0.20;0.20;;;;;;;;;;1913273;73;26263;-61
2022/11/20 01:23:35;;;;;;;0.37;0.37;;;;;;;;;;1925947;73;26223;-61
2022/11/20 01:26:04;;;;;;;0.40;0.40;;;;;;;;;;1907769;73;26225;-62
2022/11/20 01:28:31;;;;;;;0.30;0.30;;;;;;;;;;1921703;73;26167;-61
2022/11/20 01:30:59;;;;;;;0.30;0.30;;;;;;;;;;1916186;73;26226;-62
2022/11/20 01:33:26;;;;;;;0.20;0.20;;;;;;;;;;1921080;73;26242;-61
2022/11/20 01:35:54;;;;;;;0.20;0.20;;;;;;;;;;1920306;73;26274;-62
2022/11/20 01:38:22;;;;;;;0.40;0.40;;;;;;;;;;1906069;73;26726;-62
2022/11/20 01:40:54;;;;;;;0.30;0.30;;;;;;;;;;1920909;73;26261;-61
2022/11/20 01:43:21;;;;;;;0.30;0.30;;;;;;;;;;1913596;73;26296;-61
2022/11/20 01:45:53;;;;;;;0.15;0.15;;;;;;;;;;1886726;74;26682;-61
2022/11/20 01:48:21;;;;;;;0.30;0.30;;;;;;;;;;1910946;73;26739;-61
2022/11/20 01:50:49;;;;;;;0.35;0.35;;;;;;;;;;1865683;74;26832;-61
2022/11/20 01:53:18;;;;;;;0.20;0.20;;;;;;;;;;1904045;73;26242;-61
2022/11/20 01:55:50;;;;;;;0.20;0.20;;;;;;;;;;1908584;73;26772;-60
2022/11/20 01:58:19;;;;;;;0.20;0.20;;;;;;;;;;1913896;73;26272;-61
2022/11/20 02:00:46;;;;;;;0.30;0.30;;;;;;;;;;1915882;73;26246;-60
2022/11/20 02:03:15;;;;;;;0.30;0.30;;;;;;;;;;1916475;73;26238;-62
2022/11/20 02:05:44;;;;;;;0.20;0.20;;;;;;;;;;1921844;73;26261;-62
2022/11/20 02:08:12;;;;;;;0.25;0.25;;;;;;;;;;1905681;73;26304;-61
2022/11/20 02:10:39;;;;;;;0.33;0.33;;;;;;;;;;1896255;74;26198;-62
2022/11/20 02:15:58;;;;;;;0.30;0.30;;;;;;;;;;1811116;77;26811;-61
2022/11/20 02:18:26;;;;;;;0.30;0.30;;;;;;;;;;1817764;77;26231;-60
2022/11/20 02:20:55;;;;;;;0.30;0.30;;;;;;;;;;1808109;77;26290;-62
2022/11/20 02:23:24;;;;;;;0.20;0.20;;;;;;;;;;1815099;77;26341;-61
2022/11/20 02:25:52;;;;;;;0.40;0.40;;;;;;;;;;1815933;77;26270;-59
2022/11/20 02:28:19;;;;;;;0.20;0.20;;;;;;;;;;1808475;77;26286;-61
2022/11/20 02:30:46;;;;;;;0.20;0.20;;;;;;;;;;1814548;77;26325;-61
2022/11/20 02:33:14;;;;;;;0.20;0.20;;;;;;;;;;1820035;77;26815;-61
2022/11/20 02:35:43;;;;;;;0.30;0.30;;;;;;;;;;1823254;77;27500;-61
2022/11/20 02:38:10;;;;;;;0.20;0.20;;;;;;;;;;1818616;77;27568;-61
2022/11/20 02:40:37;;;;;;;0.28;0.28;;;;;;;;;;1813617;77;26262;-61
2022/11/20 02:43:05;;;;;;;0.20;0.20;;;;;;;;;;1813192;77;26364;-61
2022/11/20 02:45:32;;;;;;;0.20;0.20;;;;;;;;;;1815324;77;26254;-61
2022/11/20 02:47:59;;;;;;;0.20;0.20;;;;;;;;;;1818151;77;26344;-61
2022/11/20 02:50:27;;;;;;;0.20;0.20;;;;;;;;;;1812238;77;26262;-60
2022/11/20 02:52:54;;;;;;;0.37;0.37;;;;;;;;;;1814430;77;26692;-61
2022/11/20 02:55:22;;;;;;;0.20;0.20;;;;;;;;;;1807741;77;26819;-60
2022/11/20 02:57:49;;;;;;;0.30;0.30;;;;;;;;;;1822163;77;26282;-60
2022/11/20 03:00:16;;;;;;;0.20;0.20;;;;;;;;;;1824882;77;26265;-60
2022/11/20 03:02:44;;;;;;;0.28;0.28;;;;;;;;;;1815511;77;27127;-60
2022/11/20 03:05:11;;;;;;;0.25;0.25;;;;;;;;;;1825364;77;26768;-60
2022/11/20 03:07:45;;;;;;;0.35;0.35;;;;;;;;;;1826642;77;26854;-59
2022/11/20 03:10:12;;;;;;;0.30;0.30;;;;;;;;;;1909419;73;27178;-59
2022/11/20 03:12:39;;;;;;;0.20;0.20;;;;;;;;;;1906660;74;26245;-60
2022/11/20 03:15:07;;;;;;;0.40;0.40;;;;;;;;;;1917235;73;26302;-58
2022/11/20 03:17:34;;;;;;;0.30;0.30;;;;;;;;;;1909498;73;26230;-59
2022/11/20 03:20:02;;;;;;;0.75;0.25;;;;;;;;;;1904016;74;27549;-60
2022/11/20 03:22:29;;;;;;;0.20;0.20;;;;;;;;;;1907059;73;26786;-59
2022/11/20 03:24:57;;;;;;;0.30;0.30;;;;;;;;;;1912147;73;26295;-59
2022/11/20 03:27:24;;;;;;;0.20;0.20;;;;;;;;;;1915558;73;26270;-58
2022/11/20 03:29:51;;;;;;;0.20;0.20;;;;;;;;;;1914543;74;26374;-59
2022/11/20 03:32:19;;;;;;;0.25;0.25;;;;;;;;;;1920618;73;26240;-59
2022/11/20 03:34:46;;;;;;;0.30;0.30;;;;;;;;;;1911234;73;26236;-59
2022/11/20 03:37:13;;;;;;;0.20;0.20;;;;;;;;;;1918521;73;26278;-60
2022/11/20 03:39:40;;;;;;;0.20;0.20;;;;;;;;;;1919123;73;26293;-59
2022/11/20 03:42:44;;;;;;;0.25;0.25;;;;;;;;;;1918601;73;26320;-60
2022/11/20 04:19:39;;;;;;;0.20;0.20;;;;;;;;;;1822887;74;28846;-60
2022/11/20 04:22:07;;;;;;;0.10;0.10;;;;;;;;;;1783334;78;26829;-60
2022/11/20 04:24:34;;;;;;;0.30;0.30;;;;;;;;;;1785562;77;27276;-59
2022/11/20 04:27:01;;;;;;;0.20;0.20;;;;;;;;;;1751154;80;26301;-59
2022/11/20 04:29:28;;;;;;;0.23;0.23;;;;;;;;;;1751831;79;26302;-59
2022/11/20 04:31:56;;;;;;;0.30;0.30;;;;;;;;;;1750002;80;26299;-59
2022/11/20 04:34:23;;;;;;;0.30;0.30;;;;;;;;;;1748743;80;26304;-59
2022/11/20 04:36:50;;;;;;;0.20;0.20;;;;;;;;;;1748553;79;26307;-59
2022/11/20 04:39:17;;;;;;;0.30;0.30;;;;;;;;;;1811466;77;26398;-59
2022/11/20 04:41:45;;;;;;;0.20;0.20;;;;;;;;;;1808201;77;26345;-59
2022/11/20 04:44:12;;;;;;;0.98;0.20;;;;;;;;;;1808856;77;26307;-59
2022/11/20 04:46:41;;;;;;;0.20;0.20;;;;;;;;;;1802864;77;26301;-59
2022/11/20 04:49:09;;;;;;;0.23;0.23;;;;;;;;;;1804087;78;26753;-59
2022/11/20 04:51:36;;;;;;;1.57;0.40;;;;;;;;;;1800438;78;27528;-59
2022/11/20 04:54:03;;;;;;;0.20;0.20;;;;;;;;;;1807723;77;26865;-60
2022/11/20 04:56:31;;;;;;;0.30;0.30;;;;;;;;;;1799980;78;26644;-60
2022/11/20 04:59:02;;;;;;;0.55;0.30;;;;;;;;;;1806343;77;27428;-59
2022/11/20 05:01:29;;;;;;;0.20;0.20;;;;;;;;;;1800872;78;26965;-59
2022/11/20 05:03:56;;;;;;;0.20;0.20;;;;;;;;;;1804600;78;26263;-59
2022/11/20 05:06:23;;;;;;;0.10;0.10;;;;;;;;;;1805185;77;26321;-60
2022/11/20 05:08:51;;;;;;;0.25;0.25;;;;;;;;;;1801491;78;26740;-59
2022/11/20 05:11:19;;;;;;;0.20;0.20;;;;;;;;;;1797983;77;26304;-59
2022/11/20 05:13:47;;;;;;;2.20;0.30;;;;;;;;;;1797705;77;26507;-59
2022/11/20 05:16:19;;;;;;;0.20;0.20;;;;;;;;;;1804260;77;26359;-59
2022/11/20 05:18:47;;;;;;;0.20;0.20;;;;;;;;;;1805051;77;26594;-60
2022/11/20 05:21:14;;;;;;;0.25;0.25;;;;;;;;;;1801069;77;26773;-60
2022/11/20 05:23:42;;;;;;;0.10;0.10;;;;;;;;;;1800046;78;26371;-60
2022/11/20 05:26:11;;;;;;;0.17;0.17;;;;;;;;;;1797273;78;26914;-59
2022/11/20 05:28:38;;;;;;;0.33;0.25;;;;;;;;;;1802881;78;26354;-61
2022/11/20 05:31:09;;;;;;;0.37;0.20;;;;;;;;;;1809520;77;26353;-61
2022/11/20 05:33:37;;;;;;;0.28;0.28;;;;;;;;;;1804706;77;26219;-62
2022/11/20 05:36:04;;;;;;;0.20;0.20;;;;;;;;;;1798505;77;26276;-60
2022/11/20 05:38:32;;;;;;;0.30;0.30;;;;;;;;;;1803302;78;26303;-60
2022/11/20 05:41:06;;;;;;;1.60;0.20;;;;;;;;;;1803093;77;26879;-60
2022/11/20 05:43:35;;;;;;;0.20;0.20;;;;;;;;;;1798807;78;26281;-60
2022/11/20 05:46:03;;;;;;;0.30;0.30;;;;;;;;;;1811587;77;26300;-61
2022/11/20 05:48:30;;;;;;;0.28;0.28;;;;;;;;;;1794184;78;27427;-60
2022/11/20 05:50:58;;;;;;;0.30;0.30;;;;;;;;;;1805646;77;26899;-60
2022/11/20 05:53:26;;;;;;;0.65;0.23;;;;;;;;;;1804744;77;26713;-61
2022/11/20 05:56:00;;;;;;;0.30;0.30;;;;;;;;;;1810689;77;26265;-60
2022/11/20 05:58:27;;;;;;;1.27;0.30;;;;;;;;;;1806634;77;26282;-60
2022/11/20 06:00:55;;;;;;;3.65;0.40;;;;;;;;;;1800141;77;26739;-60
2022/11/20 06:03:22;;;;;;;0.40;0.37;;;;;;;;;;1803518;77;26265;-60
2022/11/20 06:05:49;;;;;;;0.25;0.20;;;;;;;;;;1805775;78;26270;-61
2022/11/20 06:08:17;;;;;;;0.28;0.28;;;;;;;;;;1807103;77;26310;-60
2022/11/20 06:10:44;;;;;;;0.20;0.20;;;;;;;;;;1810691;77;26281;-60
2022/11/20 06:13:11;;;;;;;0.30;0.30;;;;;;;;;;1802827;77;26360;-60
2022/11/20 06:15:38;;;;;;;0.30;0.30;;;;;;;;;;1817107;77;26254;-60
2022/11/20 06:18:06;;;;;;;0.37;0.30;;;;;;;;;;1829103;76;26313;-56
2022/11/20 06:20:33;;;;;;;1.55;0.30;;;;;;;;;;1819040;76;26333;-56
2022/11/20 06:23:00;;;;;;;0.25;0.25;;;;;;;;;;1819904;77;26450;-55
2022/11/20 06:25:27;;;;;;;0.40;0.40;;;;;;;;;;1812539;77;26825;-52
2022/11/20 06:27:55;;;;;;;0.30;0.30;;;;;;;;;;1805876;77;26375;-51
2022/11/20 06:30:22;;;;;;;1.12;0.20;;;;;;;;;;1815783;77;26351;-57
2022/11/20 06:32:49;;;;;;;0.30;0.20;;;;;;;;;;1809194;78;26652;-57
2022/11/20 06:35:16;;;;;;;0.20;0.20;;;;;;;;;;1805494;77;27579;-57
2022/11/20 06:37:44;;;;;;;0.35;0.30;;;;;;;;;;1819218;77;27454;-58
2022/11/20 06:40:11;;;;;;;0.30;0.30;;;;;;;;;;1809898;77;27247;-59
2022/11/20 06:42:39;;;;;;;2.72;0.20;;;;;;;;;;1814002;77;26308;-58
2022/11/20 06:45:06;;;;;;;0.20;0.20;;;;;;;;;;1814045;77;26277;-59
2022/11/20 06:47:34;;;;;;;0.30;0.30;;;;;;;;;;1814421;77;26799;-59
2022/11/20 06:50:01;;;;;;;0.40;0.40;;;;;;;;;;1807172;77;26349;-58
2022/11/20 06:52:28;;;;;;;1.57;0.20;;;;;;;;;;1812326;77;26336;-58
2022/11/20 06:54:56;;;;;;;0.80;0.30;;;;;;;;;;1822097;77;26380;-58
2022/11/20 06:57:23;;;;;;;0.30;0.30;;;;;;;;;;1810457;77;26264;-59
2022/11/20 06:59:50;;;;;;;0.33;0.30;;;;;;;;;;1806137;78;26285;-58
2022/11/20 07:02:17;;;;;;;0.30;0.30;;;;;;;;;;1812675;77;26391;-59
2022/11/20 07:04:45;;;;;;;0.20;0.20;;;;;;;;;;1807652;77;26275;-54
2022/11/20 07:07:12;;;;;;;1.02;0.30;;;;;;;;;;1823055;77;26804;-60
2022/11/20 07:09:39;;;;;;;0.70;0.30;;;;;;;;;;1823740;76;26808;-54
2022/11/20 07:12:06;;;;;;;0.30;0.30;;;;;;;;;;1823689;77;26796;-54
2022/11/20 07:14:34;;;;;;;1.37;0.30;;;;;;;;;;1817493;77;26397;-57
2022/11/20 07:17:01;;;;;;;0.80;0.35;;;;;;;;;;1806534;77;26281;-55
2022/11/20 07:19:28;;;;;;;0.30;0.30;;;;;;;;;;1824402;77;26265;-58
2022/11/20 07:21:55;;;;;;;0.30;0.30;;;;;;;;;;1817772;77;26692;-56
2022/11/20 07:24:23;;;;;;;0.25;0.25;;;;;;;;;;1812971;77;26300;-53
2022/11/20 07:26:50;;;;;;;0.20;0.20;;;;;;;;;;1833243;77;26786;-52
2022/11/20 07:29:17;;;;;;;0.23;0.23;;;;;;;;;;1823575;77;26359;-51
2022/11/20 07:31:45;;;;;;;0.20;0.20;;;;;;;;;;1832699;77;26278;-53
2022/11/20 07:34:12;;;;;;;0.10;0.10;;;;;;;;;;1832792;77;27209;-54
2022/11/20 07:36:39;;;;;;;0.20;0.20;;;;;;;;;;1836871;77;26365;-55
2022/11/20 07:39:07;;;;;;;0.30;0.30;;;;;;;;;;1837779;77;26728;-54
2022/11/20 07:41:34;;;;;;;0.20;0.20;;;;;;;;;;1824851;77;27221;-57
2022/11/20 07:44:02;;;;;;;1.95;0.25;;;;;;;;;;1835785;77;26793;-58
2022/11/20 07:46:29;;;;;;;0.40;0.40;;;;;;;;;;1831608;76;26379;-57
2022/11/20 07:48:56;;;;;;;0.45;0.20;;;;;;;;;;1827598;76;26298;-58
2022/11/20 07:51:25;;;;;;;0.30;0.30;;;;;;;;;;1830059;76;26824;-58
2022/11/20 07:53:53;;;;;;;3.62;0.50;;;;;;;;;;1822035;76;27633;-58
2022/11/20 07:56:20;;;;;;;2.17;0.30;;;;;;;;;;1834368;76;26251;-57
2022/11/20 07:58:48;;;;;;;1.87;0.30;;;;;;;;;;1834156;76;26338;-58
2022/11/20 08:01:15;;;;;;;0.68;0.30;;;;;;;;;;1833530;76;26856;-59
2022/11/20 08:03:42;;;;;;;0.23;0.20;;;;;;;;;;1823598;77;26797;-58
2022/11/20 08:06:09;;;;;;;1.85;0.50;;;;;;;;;;1817518;77;26425;-57
2022/11/20 08:08:39;;;;;;;1.07;0.30;;;;;;;;;;1840991;77;26315;-58
2022/11/20 08:16:37;;;;;;;1.52;0.30;;;;;;;;;;1813747;77;26407;-59
2022/11/20 08:19:04;;;;;;;1.80;0.30;;;;;;;;;;1817155;77;26241;-59
2022/11/20 08:21:32;;;;;;;0.98;0.35;;;;;;;;;;1818935;76;26957;-59
2022/11/20 08:23:59;;;;;;;0.28;0.28;;;;;;;;;;1833018;76;26278;-59
2022/11/20 08:26:27;;;;;;;1.10;0.40;;;;;;;;;;1837275;76;26296;-58
2022/11/20 08:28:55;;;;;;;0.53;0.30;;;;;;;;;;1827666;76;26421;-59
2022/11/20 08:31:24;;;;;;;2.75;0.47;;;;;;;;;;1842948;76;26308;-59
2022/11/20 08:33:51;;;;;;;0.30;0.30;;;;;;;;;;1851643;76;26254;-59
2022/11/20 08:36:19;;;;;;;3.67;1.05;;;;;;;;;;1844151;76;26333;-59
2022/11/20 08:38:51;;;;;;;0.30;0.30;;;;;;;;;;1827709;76;26783;-59
2022/11/20 08:41:24;;;;;;;0.53;0.40;;;;;;;;;;1818431;76;26409;-59
2022/11/20 08:43:51;;;;;;;1.07;0.37;;;;;;;;;;1833945;76;26358;-59
2022/11/20 08:46:19;;;;;;;0.30;0.30;;;;;;;;;;1827145;76;27404;-58
2022/11/20 08:48:46;;;;;;;2.87;0.40;;;;;;;;;;1840012;76;26347;-59
2022/11/20 08:51:13;;;;;;;0.30;0.30;;;;;;;;;;1849292;76;26362;-59
2022/11/20 08:53:41;;;;;;;0.42;0.30;;;;;;;;;;1845822;76;26337;-60
2022/11/20 08:56:09;;;;;;;0.30;0.30;;;;;;;;;;1844135;76;26545;-59
2022/11/20 08:58:37;;;;;;;0.20;0.20;;;;;;;;;;1854012;76;27766;-59
2022/11/20 09:01:05;;;;;;;0.28;0.28;;;;;;;;;;1831402;76;26276;-59
2022/11/20 09:03:32;;;;;;;1.25;0.30;;;;;;;;;;1847199;76;26329;-58
2022/11/20 09:06:00;;;;;;;0.30;0.30;;;;;;;;;;1836348;76;26318;-57
2022/11/20 09:08:28;;;;;;;1.75;0.40;;;;;;;;;;1824880;76;26296;-58
2022/11/20 09:10:56;;;;;;;1.27;0.40;;;;;;;;;;1822951;76;26255;-58
2022/11/20 09:13:24;;;;;;;0.40;0.40;;;;;;;;;;1822725;76;26614;-58
2022/11/20 09:15:59;;;;;;;0.30;0.30;;;;;;;;;;1836131;76;26278;-58
2022/11/20 09:18:28;;;;;;;0.40;0.30;;;;;;;;;;1887320;74;26656;-58
2022/11/20 09:20:59;;;;;;;1.85;0.40;;;;;;;;;;1868026;75;26354;-58
2022/11/20 09:23:27;;;;;;;2.10;0.55;;;;;;;;;;1880244;75;26261;-58
2022/11/20 09:25:55;;;;;;;1.07;0.40;;;;;;;;;;1877609;75;26561;-60
2022/11/20 09:28:22;;;;;;;0.42;0.35;;;;;;;;;;1880663;75;26277;-58
2022/11/20 09:30:50;;;;;;;0.45;0.40;;;;;;;;;;1864540;75;26319;-58
2022/11/20 09:33:17;;;;;;;0.33;0.33;;;;;;;;;;1882164;75;26248;-58
2022/11/20 09:35:45;;;;;;;0.30;0.30;;;;;;;;;;1890584;75;26535;-59
2022/11/20 09:38:13;;;;;;;0.30;0.30;;;;;;;;;;1878164;75;26257;-58
2022/11/20 09:40:45;;;;;;;0.35;0.35;;;;;;;;;;1871912;75;26330;-59
2022/11/20 09:43:14;;;;;;;0.25;0.25;;;;;;;;;;1856968;75;26733;-58
2022/11/20 09:45:48;;;;;;;0.40;0.40;;;;;;;;;;1878889;75;26645;-59
2022/11/20 09:48:17;;;;;;;1.10;0.50;;;;;;;;;;1892301;75;26700;-58
2022/11/20 09:51:03;;;;;;;0.30;0.30;;;;;;;;;;1877462;75;26337;-59
2022/11/20 09:53:35;;;;;;;0.30;0.30;;;;;;;;;;1884929;75;26241;-59
2022/11/20 09:56:03;;;;;;;0.47;0.40;;;;;;;;;;1837997;75;26253;-58
2022/11/20 09:58:34;;;;;;;0.42;0.40;;;;;;;;;;1861031;75;26291;-57
2022/11/20 10:01:12;;;;;;;0.53;0.40;;;;;;;;;;1891560;75;26279;-58
2022/11/20 10:03:53;;;;;;;0.30;0.30;;;;;;;;;;1859592;75;26263;-58
2022/11/20 10:06:21;;;;;;;0.30;0.30;;;;;;;;;;1874131;75;26236;-58
2022/11/20 10:09:02;;;;;;;0.30;0.30;;;;;;;;;;1886576;74;26248;-59
2022/11/20 10:11:31;;;;;;;0.40;0.33;;;;;;;;;;1874447;75;26355;-58
2022/11/20 10:14:03;;;;;;;0.40;0.40;;;;;;;;;;1874395;75;26271;-58
2022/11/20 10:16:31;;;;;;;0.65;0.45;;;;;;;;;;1865463;75;26268;-57
2022/11/20 10:19:03;;;;;;;0.60;0.40;;;;;;;;;;1869987;74;26314;-58
2022/11/20 10:21:50;;;;;;;1.00;0.45;;;;;;;;;;1865435;74;26250;-58
2022/11/20 10:24:23;;;;;;;2.72;0.50;;;;;;;;;;1867325;74;26273;-58
2022/11/20 10:27:04;;;;;;;0.45;0.40;;;;;;;;;;1862334;74;26260;-59
2022/11/20 10:29:35;;;;;;;0.62;0.60;;;;;;;;;;1870237;74;26870;-58
2022/11/20 10:32:04;;;;;;;1.05;0.50;;;;;;;;;;1860058;74;26258;-59
2022/11/20 10:34:36;;;;;;;3.75;0.60;;;;;;;;;;1869141;74;26317;-58
2022/11/20 10:37:05;;;;;;;1.45;0.40;;;;;;;;;;1864244;74;26266;-58
2022/11/20 10:39:36;;;;;;;3.30;0.50;;;;;;;;;;1866988;74;26227;-59
2022/11/20 10:42:05;;;;;;;3.72;0.68;;;;;;;;;;1860057;74;26344;-58
2022/11/20 10:47:21;;;;;;;2.25;1.22;;;;;;;;;;1876330;74;26403;-59
2022/11/20 10:49:55;;;;;;;6.25;3.20;;;;;;;;;;1859093;74;26702;-59
2022/11/20 10:52:33;;;;;;;4.03;3.55;;;;;;;;;;1870773;74;26325;-58
2022/11/20 10:55:02;;;;;;;7.58;4.80;;;;;;;;;;1861799;74;26247;-59
2022/11/20 10:57:33;;;;;;;5.67;5.17;;;;;;;;;;1864850;74;26257;-59
2022/11/20 11:00:05;;;;;;;6.15;5.55;;;;;;;;;;1872032;74;26276;-58
2022/11/20 11:02:37;;;;;;;7.95;5.45;;;;;;;;;;1872674;74;26268;-59
2022/11/20 11:05:09;;;;;;;5.50;4.95;;;;;;;;;;1883723;74;26265;-59
2022/11/20 11:07:40;;;;;;;7.62;5.42;;;;;;;;;;1868431;74;26303;-59
2022/11/20 11:10:21;;;;;;;6.45;5.10;;;;;;;;;;1870632;74;27064;-59
2022/11/20 11:12:49;;;;;;;5.90;5.20;;;;;;;;;;1869881;74;26252;-54
2022/11/20 11:15:17;;;;;;;8.30;5.25;;;;;;;;;;1872063;74;26263;-54
2022/11/20 11:17:48;;;;;;;5.83;5.20;;;;;;;;;;1845927;75;26580;-56
2022/11/20 11:20:19;;;;;;;6.22;5.20;;;;;;;;;;1887198;74;26277;-58
2022/11/20 11:22:48;;;;;;;5.22;4.72;;;;;;;;;;1873822;75;26307;-58
2022/11/20 11:25:29;;;;;;;5.50;5.00;;;;;;;;;;1874784;75;26264;-58
2022/11/20 11:28:00;;;;;;;6.00;4.90;;;;;;;;;;1881742;74;26338;-58
2022/11/20 11:30:30;;;;;;;5.65;4.65;;;;;;;;;;1872090;74;26264;-58
2022/11/20 11:33:06;;;;;;;5.15;4.37;;;;;;;;;;1879388;74;26768;-58
2022/11/20 11:35:34;;;;;;;4.95;4.45;;;;;;;;;;1880473;74;26676;-57
2022/11/20 11:38:07;;;;;;;5.83;4.25;;;;;;;;;;1881428;74;26754;-58
2022/11/20 11:40:35;;;;;;;4.70;4.15;;;;;;;;;;1882391;74;26350;-58
2022/11/20 11:43:04;;;;;;;4.00;3.80;;;;;;;;;;1879778;75;26256;-57
2022/11/20 11:45:32;;;;;;;6.83;3.80;;;;;;;;;;1871269;74;26263;-58
2022/11/20 11:48:00;;;;;;;4.10;3.60;;;;;;;;;;1895776;74;26782;-58
2022/11/20 11:50:29;;;;;;;3.95;3.65;;;;;;;;;;1853069;75;27259;-57
2022/11/20 11:53:04;;;;;;;3.55;3.25;;;;;;;;;;1856998;75;26637;-58
2022/11/20 11:55:39;;;;;;;7.70;3.30;;;;;;;;;;1860365;74;26501;-57
2022/11/20 11:58:08;;;;;;;3.02;2.83;;;;;;;;;;1852700;75;26717;-58
2022/11/20 12:00:35;;;;;;;3.45;2.75;;;;;;;;;;1864663;74;26745;-57
2022/11/20 12:03:07;;;;;;;2.70;2.60;;;;;;;;;;1857803;74;26325;-58
2022/11/20 12:05:43;;;;;;;2.62;2.50;;;;;;;;;;1856066;74;26998;-58
2022/11/20 12:08:11;;;;;;;2.60;2.40;;;;;;;;;;1850557;75;26707;-57
2022/11/20 12:10:52;;;;;;;3.00;2.40;;;;;;;;;;1852893;75;26250;-58
2022/11/20 12:13:26;;;;;;;3.47;2.40;;;;;;;;;;1864553;75;26308;-49
2022/11/20 12:15:54;;;;;;;2.30;2.17;;;;;;;;;;1860873;74;26248;-50
2022/11/20 12:18:22;;;;;;;2.10;2.00;;;;;;;;;;1867561;74;26841;-50
2022/11/20 12:20:54;;;;;;;1.80;1.80;;;;;;;;;;1858587;74;26294;-57
2022/11/20 12:23:40;;;;;;;2.52;1.82;;;;;;;;;;1866243;74;27461;-52
2022/11/20 12:26:08;;;;;;;2.22;1.72;;;;;;;;;;1854180;75;26556;-53
2022/11/20 12:28:43;;;;;;;1.60;1.60;;;;;;;;;;1850078;75;26275;-60
2022/11/20 12:31:12;;;;;;;3.12;1.62;;;;;;;;;;1854618;74;26204;-60
2022/11/20 12:33:56;;;;;;;4.17;1.70;;;;;;;;;;1856387;75;26251;-55
2022/11/20 12:36:24;;;;;;;1.82;1.72;;;;;;;;;;1868682;75;26940;-59
2022/11/20 12:38:56;;;;;;;1.80;1.70;;;;;;;;;;1865879;75;26808;-59
2022/11/20 12:47:38;;;;;;;1.57;1.50;;;;;;;;;;1863021;74;26320;-61
2022/11/20 12:50:16;;;;;;;1.60;1.60;;;;;;;;;;1863857;75;26324;-55
2022/11/20 12:52:48;;;;;;;1.60;1.50;;;;;;;;;;1865923;74;26626;-57
2022/11/20 12:55:29;;;;;;;2.70;1.50;;;;;;;;;;1868882;75;26268;-61
2022/11/20 12:58:15;;;;;;;1.57;1.55;;;;;;;;;;1861927;75;26287;-58
2022/11/20 13:00:43;;;;;;;1.70;1.55;;;;;;;;;;1863361;75;26216;-57
2022/11/20 13:03:29;;;;;;;1.50;1.50;;;;;;;;;;1861665;74;26226;-57
2022/11/20 13:06:13;;;;;;;1.40;1.40;;;;;;;;;;1873161;74;26295;-59
2022/11/20 13:08:41;;;;;;;1.50;1.40;;;;;;;;;;1860532;75;26255;-57
2022/11/20 13:11:19;;;;;;;2.12;1.37;;;;;;;;;;1871712;74;26291;-55
2022/11/20 13:14:00;;;;;;;1.35;1.35;;;;;;;;;;1868240;75;26363;-60
2022/11/20 13:16:32;;;;;;;1.30;1.30;;;;;;;;;;1856837;74;27607;-60
2022/11/20 13:19:00;;;;;;;1.20;1.20;;;;;;;;;;1864653;73;26286;-61
2022/11/20 13:21:38;;;;;;;1.30;1.30;;;;;;;;;;1876737;74;26367;-60
2022/11/20 13:24:06;;;;;;;1.30;1.30;;;;;;;;;;1864471;75;27154;-61
2022/11/20 13:26:34;;;;;;;1.35;1.35;;;;;;;;;;1878069;74;26292;-55
2022/11/20 13:29:12;;;;;;;1.20;1.20;;;;;;;;;;1869481;75;26223;-61
2022/11/20 13:31:41;;;;;;;1.50;1.40;;;;;;;;;;1866647;74;26310;-63
2022/11/20 13:34:10;;;;;;;1.30;1.20;;;;;;;;;;1876890;74;26597;-60
2022/11/20 13:36:39;;;;;;;1.25;1.20;;;;;;;;;;1869495;74;26336;-54
2022/11/20 13:39:06;;;;;;;1.20;1.20;;;;;;;;;;1862662;74;26709;-52
2022/11/20 13:41:37;;;;;;;1.20;1.20;;;;;;;;;;1867129;75;26776;-58
2022/11/20 13:44:11;;;;;;;1.05;1.05;;;;;;;;;;1873982;75;26384;-55
2022/11/20 13:46:40;;;;;;;1.10;1.10;;;;;;;;;;1876069;74;26367;-59
2022/11/20 13:49:26;;;;;;;1.25;1.15;;;;;;;;;;1866510;74;26513;-61
2022/11/20 13:51:55;;;;;;;1.30;1.30;;;;;;;;;;1869396;74;26271;-51
2022/11/20 13:54:23;;;;;;;1.27;1.27;;;;;;;;;;1867791;74;26250;-63
2022/11/20 13:56:58;;;;;;;1.55;1.50;;;;;;;;;;1862596;75;26745;-62
2022/11/20 13:59:30;;;;;;;1.60;1.60;;;;;;;;;;1868025;75;26245;-62
2022/11/20 14:01:57;;;;;;;2.20;2.10;;;;;;;;;;1885149;74;26277;-59
2022/11/20 14:04:32;;;;;;;2.50;2.40;;;;;;;;;;1871742;74;26332;-60
2022/11/20 14:07:00;;;;;;;2.95;2.70;;;;;;;;;;1864372;74;26743;-61
2022/11/20 14:09:28;;;;;;;4.00;3.20;;;;;;;;;;1871270;74;26324;-61
2022/11/20 14:11:57;;;;;;;3.77;3.47;;;;;;;;;;1877628;74;26697;-60
2022/11/20 14:14:28;;;;;;;3.55;3.35;;;;;;;;;;1874090;74;26296;-61
2022/11/20 14:17:08;;;;;;;3.70;3.50;;;;;;;;;;1874419;74;26228;-61
2022/11/20 14:19:36;;;;;;;4.05;3.70;;;;;;;;;;1874283;74;26272;-61
2022/11/20 14:22:08;;;;;;;4.17;3.80;;;;;;;;;;1874798;74;26264;-58
2022/11/20 14:24:35;;;;;;;4.10;3.80;;;;;;;;;;1867843;74;26256;-54
2022/11/20 14:27:03;;;;;;;4.30;3.90;;;;;;;;;;1870134;74;26318;-54
2022/11/20 14:29:32;;;;;;;4.30;3.90;;;;;;;;;;1872664;74;26732;-63
2022/11/20 14:31:59;;;;;;;5.45;3.80;;;;;;;;;;1870525;74;26297;-62
2022/11/20 14:34:28;;;;;;;3.98;3.72;;;;;;;;;;1867204;74;26344;-60
2022/11/20 14:37:00;;;;;;;4.33;3.92;;;;;;;;;;1866870;74;26342;-53
2022/11/20 14:39:29;;;;;;;4.08;3.77;;;;;;;;;;1863302;74;26990;-61
2022/11/20 14:41:56;;;;;;;4.00;3.70;;;;;;;;;;1861162;74;26216;-58
2022/11/20 14:44:28;;;;;;;4.22;3.80;;;;;;;;;;1875282;74;26384;-57
2022/11/20 14:46:55;;;;;;;3.83;3.55;;;;;;;;;;1875260;74;26291;-61
2022/11/20 14:49:23;;;;;;;3.90;3.60;;;;;;;;;;1872934;74;26659;-59
2022/11/20 14:51:52;;;;;;;4.05;3.65;;;;;;;;;;1866081;74;26797;-60
2022/11/20 14:54:25;;;;;;;3.40;3.20;;;;;;;;;;1819084;73;26971;-59
2022/11/20 14:56:56;;;;;;;3.50;3.20;;;;;;;;;;1811588;78;26338;-52
2022/11/20 14:59:24;;;;;;;3.22;2.83;;;;;;;;;;1814967;78;26351;-54
2022/11/20 15:02:05;;;;;;;3.17;2.98;;;;;;;;;;1809627;79;26299;-60
2022/11/20 15:04:33;;;;;;;3.20;2.90;;;;;;;;;;1810755;79;26359;-57
2022/11/20 15:07:00;;;;;;;4.37;2.67;;;;;;;;;;1814643;79;26355;-55
2022/11/20 15:09:27;;;;;;;2.75;2.55;;;;;;;;;;1812617;78;27133;-56
2022/11/20 15:11:56;;;;;;;2.50;2.40;;;;;;;;;;1814378;79;26534;-59
2022/11/20 15:14:24;;;;;;;2.50;2.30;;;;;;;;;;1814784;77;26751;-58
2022/11/20 15:16:52;;;;;;;2.52;2.30;;;;;;;;;;1813620;79;26314;-60
2022/11/20 15:19:21;;;;;;;2.75;2.62;;;;;;;;;;1805247;79;26282;-56
2022/11/20 15:21:49;;;;;;;2.33;2.22;;;;;;;;;;1811616;79;26759;-61
2022/11/20 15:24:16;;;;;;;2.72;2.52;;;;;;;;;;1816108;79;26362;-62
2022/11/20 15:26:44;;;;;;;2.65;2.45;;;;;;;;;;1814159;79;26353;-61
2022/11/20 15:29:12;;;;;;;2.12;2.02;;;;;;;;;;1815138;79;26302;-56
2022/11/20 15:31:43;;;;;;;2.77;2.30;;;;;;;;;;1815587;78;26283;-51
2022/11/20 15:34:13;;;;;;;4.62;2.60;;;;;;;;;;1816257;78;26724;-54
2022/11/20 15:36:40;;;;;;;5.25;2.35;;;;;;;;;;1815416;79;26373;-59
2022/11/20 15:39:08;;;;;;;2.67;2.20;;;;;;;;;;1815944;79;26292;-60
2022/11/20 15:41:36;;;;;;;3.35;2.15;;;;;;;;;;1815557;78;26361;-60
2022/11/20 15:44:04;;;;;;;2.83;2.30;;;;;;;;;;1813669;78;26704;-59
2022/11/20 15:46:38;;;;;;;3.17;2.27;;;;;;;;;;1816598;78;26308;-55
2022/11/20 15:49:01;;;;;;;2.95;2.20;;;;;;;;;;1814437;78;26934;-58